createdAt,value
2018-12-29T00:01:27.405Z,28.30
2018-12-29T00:03:55.695Z,26.70
2018-12-29T00:06:23.947Z,27.07
2018-12-29T00:08:52.237Z,26.27
2018-12-29T00:11:20.526Z,27.97
2018-12-29T00:13:48.881Z,28.87
2018-12-29T00:16:17.128Z,27.50
2018-12-29T00:18:45.393Z,28.07
2018-12-29T00:21:13.711Z,26.70
2018-12-29T00:23:42.028Z,28.87
2018-12-29T00:26:10.972Z,28.57
2018-12-29T00:28:39.287Z,28.63
2018-12-29T00:31:07.555Z,27.50
2018-12-29T00:33:35.916Z,27.33
2018-12-29T00:36:04.387Z,29.30
2018-12-29T00:38:32.681Z,27.40
2018-12-29T00:41:00.931Z,29.00
2018-12-29T00:43:29.238Z,27.47
2018-12-29T00:45:57.519Z,30.67
2018-12-29T00:48:25.817Z,28.60
2018-12-29T00:50:54.082Z,31.03
2018-12-29T00:53:22.331Z,29.90
2018-12-29T00:55:50.662Z,28.33
2018-12-29T00:58:18.932Z,28.43
2018-12-29T01:00:47.225Z,29.27
2018-12-29T01:03:15.682Z,30.80
2018-12-29T01:05:43.928Z,27.90
2018-12-29T01:08:12.218Z,31.27
2018-12-29T01:10:40.523Z,31.77
2018-12-29T01:13:08.812Z,29.70
2018-12-29T01:15:37.167Z,30.47
2018-12-29T01:18:05.416Z,33.00
2018-12-29T01:20:33.666Z,29.90
2018-12-29T01:23:02.009Z,31.83
2018-12-29T01:25:30.303Z,30.20
2018-12-29T01:27:58.561Z,32.60
2018-12-29T01:30:26.872Z,29.93
2018-12-29T01:32:55.221Z,31.40
2018-12-29T01:35:23.481Z,31.63
2018-12-29T01:37:51.788Z,32.30
2018-12-29T01:40:20.189Z,30.53
2018-12-29T01:42:48.453Z,29.73
2018-12-29T01:45:17.589Z,31.07
2018-12-29T01:47:46.998Z,31.27
2018-12-29T01:50:15.628Z,29.17
2018-12-29T01:52:43.893Z,30.93
2018-12-29T01:55:12.176Z,31.73
2018-12-29T01:57:40.451Z,31.80
2018-12-29T02:00:08.825Z,30.13
2018-12-29T02:02:37.101Z,30.53
2018-12-29T02:05:05.722Z,29.87
2018-12-29T02:07:34.199Z,31.17
2018-12-29T02:10:02.491Z,30.73
2018-12-29T02:12:30.783Z,28.90
2018-12-29T02:14:59.077Z,29.50
2018-12-29T02:17:27.393Z,30.90
2018-12-29T02:19:55.674Z,31.07
2018-12-29T02:22:23.956Z,29.80
2018-12-29T02:24:52.218Z,31.23
2018-12-29T02:27:20.606Z,31.20
2018-12-29T02:29:48.909Z,29.90
2018-12-29T02:32:17.154Z,32.43
2018-12-29T02:34:45.618Z,31.87
2018-12-29T02:37:13.871Z,32.00
2018-12-29T02:39:42.285Z,33.10
2018-12-29T02:42:10.561Z,32.10
2018-12-29T02:44:39.011Z,29.00
2018-12-29T02:47:07.271Z,31.80
2018-12-29T02:49:35.549Z,31.93
2018-12-29T02:52:03.870Z,32.90
2018-12-29T02:54:32.167Z,29.03
2018-12-29T02:57:00.436Z,27.37
2018-12-29T02:59:28.742Z,30.90
2018-12-29T03:01:57.036Z,29.13
2018-12-29T03:04:25.291Z,29.87
2018-12-29T03:06:53.562Z,31.70
2018-12-29T03:09:21.816Z,30.03
2018-12-29T03:11:50.100Z,28.40
2018-12-29T03:14:18.417Z,29.00
2018-12-29T03:16:46.672Z,31.10
2018-12-29T03:19:14.937Z,29.90
2018-12-29T03:21:43.224Z,28.50
2018-12-29T03:24:11.539Z,29.40
2018-12-29T03:26:39.791Z,31.13
2018-12-29T03:29:08.096Z,28.30
2018-12-29T03:31:36.374Z,30.23
2018-12-29T03:34:04.631Z,27.50
2018-12-29T03:36:32.954Z,27.67
2018-12-29T03:39:01.209Z,27.90
2018-12-29T03:41:29.498Z,28.37
2018-12-29T03:43:57.883Z,28.93
2018-12-29T03:46:26.145Z,28.00
2018-12-29T03:48:54.415Z,27.37
2018-12-29T03:51:22.670Z,30.90
2018-12-29T03:53:51.526Z,28.57
2018-12-29T03:56:19.785Z,27.43
2018-12-29T03:58:48.181Z,28.20
2018-12-29T04:01:16.488Z,25.90
2018-12-29T04:03:44.741Z,27.70
2018-12-29T04:06:13.022Z,28.07
2018-12-29T04:08:42.974Z,25.67
2018-12-29T04:11:11.279Z,29.13
2018-12-29T04:13:39.778Z,26.93
2018-12-29T04:16:08.061Z,27.73
2018-12-29T04:18:36.729Z,28.60
2018-12-29T04:21:04.993Z,30.00
2018-12-29T04:23:33.273Z,27.73
2018-12-29T04:26:01.523Z,28.57
2018-12-29T04:28:29.866Z,29.90
2018-12-29T04:30:58.114Z,27.83
2018-12-29T04:33:26.403Z,28.30
2018-12-29T04:35:54.684Z,28.60
2018-12-29T04:38:23.073Z,28.63
2018-12-29T04:40:51.361Z,28.77
2018-12-29T04:43:19.700Z,28.67
2018-12-29T04:45:47.986Z,26.77
2018-12-29T04:48:16.255Z,27.40
2018-12-29T04:50:44.701Z,25.40
2018-12-29T04:53:13.051Z,26.60
2018-12-29T04:55:41.297Z,28.93
2018-12-29T04:58:09.657Z,27.90
2018-12-29T05:00:37.915Z,27.30
2018-12-29T05:03:06.524Z,27.10
2018-12-29T05:05:35.476Z,29.43
2018-12-29T05:08:03.779Z,29.60
2018-12-29T05:10:32.035Z,29.23
2018-12-29T05:13:00.298Z,28.83
2018-12-29T05:15:28.631Z,28.63
2018-12-29T05:17:56.899Z,29.60
2018-12-29T05:20:25.263Z,29.90
2018-12-29T05:22:54.218Z,31.70
2018-12-29T05:25:22.547Z,28.47
2018-12-29T05:27:50.842Z,30.70
2018-12-29T05:30:19.102Z,28.20
2018-12-29T05:32:47.371Z,29.60
2018-12-29T05:35:15.795Z,27.00
2018-12-29T05:37:44.091Z,30.30
2018-12-29T05:40:12.347Z,30.40
2018-12-29T05:42:40.627Z,30.27
2018-12-29T05:45:08.894Z,30.23
2018-12-29T05:47:37.228Z,29.30
2018-12-29T05:50:05.947Z,28.07
2018-12-29T05:52:34.382Z,27.17
2018-12-29T05:55:02.642Z,28.93
2018-12-29T05:57:30.906Z,28.90
2018-12-29T05:59:59.289Z,30.43
2018-12-29T06:02:27.557Z,29.33
2018-12-29T06:04:55.817Z,29.77
2018-12-29T06:07:24.149Z,30.37
2018-12-29T06:09:52.407Z,27.67
2018-12-29T06:12:20.767Z,29.30
2018-12-29T06:14:50.525Z,28.53
2018-12-29T06:17:18.782Z,29.97
2018-12-29T06:19:47.070Z,30.93
2018-12-29T06:22:15.423Z,31.10
2018-12-29T06:24:43.663Z,29.30
2018-12-29T06:27:11.927Z,31.83
2018-12-29T06:29:40.207Z,32.40
2018-12-29T06:32:08.469Z,32.40
2018-12-29T06:34:36.916Z,32.30
2018-12-29T06:37:05.174Z,32.40
2018-12-29T06:39:33.443Z,32.60
2018-12-29T06:42:01.749Z,31.40
2018-12-29T06:44:30.007Z,31.67
2018-12-29T06:46:58.313Z,31.27
2018-12-29T06:49:26.617Z,32.60
2018-12-29T06:51:54.905Z,34.47
2018-12-29T06:54:23.166Z,34.07
2018-12-29T06:56:51.529Z,32.80
2018-12-29T06:59:19.812Z,33.67
2018-12-29T07:01:48.067Z,32.87
2018-12-29T07:04:16.397Z,30.50
2018-12-29T07:06:44.656Z,31.67
2018-12-29T07:09:12.998Z,32.90
2018-12-29T07:11:41.278Z,34.77
2018-12-29T07:14:09.590Z,32.80
2018-12-29T07:16:42.279Z,32.73
2018-12-29T07:19:07.891Z,31.80
2018-12-29T07:21:36.856Z,31.90
2018-12-29T07:24:05.166Z,34.00
2018-12-29T07:26:33.443Z,33.33
2018-12-29T07:29:01.719Z,33.17
2018-12-29T07:31:30.103Z,33.07
2018-12-29T07:33:58.411Z,33.67
2018-12-29T07:36:26.711Z,30.50
2018-12-29T07:38:55.129Z,32.30
2018-12-29T07:41:23.378Z,34.93
2018-12-29T07:43:51.644Z,36.00
2018-12-29T07:46:20.035Z,32.90
2018-12-29T07:48:48.301Z,33.93
2018-12-29T07:51:16.587Z,33.53
2018-12-29T07:53:44.912Z,34.80
2018-12-29T07:56:14.859Z,33.67
2018-12-29T07:58:43.110Z,36.57
2018-12-29T08:01:11.405Z,34.13
2018-12-29T08:03:39.758Z,36.13
2018-12-29T08:06:08.067Z,35.47
2018-12-29T08:08:36.327Z,37.17
2018-12-29T08:11:04.587Z,34.67
2018-12-29T08:13:33.027Z,36.13
2018-12-29T08:16:01.294Z,36.70
2018-12-29T08:18:29.572Z,36.07
2018-12-29T08:20:57.893Z,36.37
2018-12-29T08:23:26.179Z,37.23
2018-12-29T08:25:54.438Z,35.63
2018-12-29T08:28:22.722Z,34.70
2018-12-29T08:30:51.011Z,36.00
2018-12-29T08:33:19.441Z,36.67
2018-12-29T08:35:47.705Z,37.80
2018-12-29T08:38:15.996Z,40.33
2018-12-29T08:40:44.351Z,39.17
2018-12-29T08:43:12.640Z,35.83
2018-12-29T08:45:40.889Z,39.20
2018-12-29T08:48:09.176Z,38.73
2018-12-29T08:50:37.485Z,36.10
2018-12-29T08:53:05.759Z,37.80
2018-12-29T08:55:36.956Z,37.70
2018-12-29T08:58:05.258Z,38.10
2018-12-29T09:00:33.643Z,34.93
2018-12-29T09:03:02.182Z,33.80
2018-12-29T09:05:30.479Z,37.60
2018-12-29T09:07:59.156Z,39.40
2018-12-29T09:10:27.469Z,34.73
2018-12-29T09:12:55.776Z,37.07
2018-12-29T09:15:24.027Z,37.30
2018-12-29T09:17:52.333Z,34.90
2018-12-29T09:20:20.611Z,35.73
2018-12-29T09:22:48.908Z,35.43
2018-12-29T09:25:17.227Z,34.03
2018-12-29T09:27:45.492Z,34.63
2018-12-29T09:30:13.762Z,35.80
2018-12-29T09:32:42.322Z,34.03
2018-12-29T09:35:10.575Z,35.07
2018-12-29T09:37:38.852Z,33.20
2018-12-29T09:40:07.102Z,34.20
2018-12-29T09:42:35.420Z,32.50
2018-12-29T09:45:03.734Z,33.73
2018-12-29T09:47:32.044Z,32.57
2018-12-29T09:50:00.406Z,32.23
2018-12-29T09:52:28.674Z,33.20
2018-12-29T09:54:56.977Z,34.03
2018-12-29T09:57:25.265Z,32.63
2018-12-29T09:59:53.548Z,30.03
2018-12-29T10:02:21.823Z,31.10
2018-12-29T10:04:50.078Z,29.53
2018-12-29T10:07:18.431Z,30.67
2018-12-29T10:09:46.687Z,29.87
2018-12-29T10:12:14.947Z,26.97
2018-12-29T10:14:43.268Z,30.27
2018-12-29T10:17:11.691Z,29.70
2018-12-29T10:19:39.951Z,29.33
2018-12-29T10:22:08.212Z,29.53
2018-12-29T10:24:36.539Z,30.70
2018-12-29T10:27:04.788Z,28.93
2018-12-29T10:29:33.072Z,28.10
2018-12-29T10:32:01.349Z,28.83
2018-12-29T10:34:29.639Z,28.97
2018-12-29T10:36:57.885Z,30.63
2018-12-29T10:39:26.212Z,28.63
2018-12-29T10:41:54.491Z,28.47
2018-12-29T10:44:22.799Z,27.23
2018-12-29T10:46:51.097Z,29.20
2018-12-29T10:49:19.364Z,28.37
2018-12-29T10:51:47.653Z,29.13
2018-12-29T10:54:15.943Z,27.90
2018-12-29T10:56:44.311Z,28.40
2018-12-29T10:59:12.632Z,29.73
2018-12-29T11:01:41.544Z,27.47
2018-12-29T11:04:09.883Z,27.97
2018-12-29T11:06:38.111Z,28.33
2018-12-29T11:09:06.773Z,27.30
2018-12-29T11:11:35.083Z,25.20
2018-12-29T11:14:03.370Z,27.90
2018-12-29T11:16:31.674Z,28.60
2018-12-29T11:18:59.927Z,27.27
2018-12-29T11:21:28.245Z,27.10
2018-12-29T11:23:56.497Z,27.93
2018-12-29T11:26:24.750Z,28.97
2018-12-29T11:28:53.136Z,28.43
2018-12-29T11:31:21.402Z,29.00
2018-12-29T11:33:49.663Z,29.03
2018-12-29T11:36:18.054Z,30.47
2018-12-29T11:38:46.594Z,28.03
2018-12-29T11:41:14.847Z,30.13
2018-12-29T11:43:43.177Z,28.17
2018-12-29T11:46:11.423Z,26.30
2018-12-29T11:48:39.703Z,28.13
2018-12-29T11:51:07.984Z,27.43
2018-12-29T11:53:36.562Z,26.87
2018-12-29T11:56:04.857Z,25.80
2018-12-29T11:58:33.214Z,26.13
2018-12-29T12:01:01.589Z,26.67
2018-12-29T12:03:29.850Z,25.50
2018-12-29T12:05:58.111Z,26.50
2018-12-29T12:08:26.544Z,23.53
2018-12-29T12:10:55.127Z,28.20
2018-12-29T12:13:23.423Z,26.30
2018-12-29T12:15:51.755Z,25.90
2018-12-29T12:18:20.007Z,28.00
2018-12-29T12:20:48.292Z,28.10
2018-12-29T12:23:17.467Z,29.20
2018-12-29T12:25:45.725Z,29.77
2018-12-29T12:28:13.979Z,30.03
2018-12-29T12:30:42.286Z,30.80
2018-12-29T12:33:11.655Z,32.80
2018-12-29T12:35:40.006Z,32.27
2018-12-29T12:38:08.532Z,30.17
2018-12-29T12:40:37.097Z,32.20
2018-12-29T12:43:05.428Z,32.63
2018-12-29T12:45:33.677Z,33.13
2018-12-29T12:48:05.138Z,33.73
2018-12-29T12:50:32.254Z,32.30
2018-12-29T12:53:00.534Z,32.87
2018-12-29T12:55:28.800Z,33.67
2018-12-29T12:57:57.236Z,32.13
2018-12-29T13:00:25.895Z,32.07
2018-12-29T13:02:54.562Z,32.53
2018-12-29T13:05:22.846Z,32.30
2018-12-29T13:07:51.888Z,29.63
2018-12-29T13:10:20.362Z,33.20
2018-12-29T13:12:48.675Z,30.13
2018-12-29T13:15:16.987Z,32.30
2018-12-29T13:17:45.424Z,32.33
2018-12-29T13:20:13.680Z,31.17
2018-12-29T13:22:42.313Z,31.20
2018-12-29T13:25:10.595Z,35.40
2018-12-29T13:27:38.977Z,31.90
2018-12-29T13:30:07.231Z,31.17
2018-12-29T13:32:35.496Z,33.17
2018-12-29T13:35:04.209Z,34.40
2018-12-29T13:37:32.459Z,33.43
2018-12-29T13:40:00.846Z,33.00
2018-12-29T13:42:29.102Z,33.93
2018-12-29T13:44:57.371Z,36.30
2018-12-29T13:47:25.760Z,36.03
2018-12-29T13:49:54.012Z,34.73
2018-12-29T13:52:22.397Z,34.00
2018-12-29T13:54:51.879Z,34.00
2018-12-29T13:57:20.088Z,30.70
2018-12-29T13:59:48.889Z,31.77
2018-12-29T14:02:17.141Z,31.00
2018-12-29T14:04:45.394Z,32.07
2018-12-29T14:07:13.677Z,31.70
2018-12-29T14:09:41.935Z,29.00
2018-12-29T14:12:10.524Z,23.73
2018-12-29T14:14:38.785Z,25.03
2018-12-29T14:17:07.069Z,21.77
2018-12-29T14:19:35.456Z,23.83
2018-12-29T14:22:03.757Z,23.47
2018-12-29T14:24:32.298Z,22.20
2018-12-29T14:27:00.606Z,22.03
2018-12-29T14:29:28.864Z,22.10
2018-12-29T14:31:57.183Z,21.67
2018-12-29T14:34:25.572Z,20.70
2018-12-29T14:36:54.258Z,21.60
2018-12-29T14:39:22.597Z,19.60
2018-12-29T14:41:51.027Z,22.27
2018-12-29T14:44:19.344Z,20.33
2018-12-29T14:46:47.595Z,20.10
2018-12-29T14:49:16.151Z,21.23
2018-12-29T14:51:44.463Z,18.90
2018-12-29T14:54:12.875Z,20.40
2018-12-29T14:56:41.178Z,20.30
2018-12-29T14:59:09.418Z,18.70
2018-12-29T15:01:38.231Z,20.20
2018-12-29T15:04:06.513Z,18.73
2018-12-29T15:06:34.794Z,17.80
2018-12-29T15:09:03.085Z,16.63
2018-12-29T15:11:31.407Z,16.40
2018-12-29T15:13:59.720Z,14.40
2018-12-29T15:16:28.007Z,15.83
2018-12-29T15:18:56.825Z,16.90
2018-12-29T15:21:25.490Z,17.60
2018-12-29T15:23:53.823Z,16.43
2018-12-29T15:26:22.090Z,17.20
2018-12-29T15:28:51.029Z,18.70
2018-12-29T15:31:20.192Z,17.83
2018-12-29T15:33:48.514Z,17.03
2018-12-29T15:36:16.846Z,19.97
2018-12-29T15:38:45.211Z,21.07
2018-12-29T15:41:13.486Z,20.33
2018-12-29T15:43:41.889Z,19.77
2018-12-29T15:46:10.142Z,21.07
2018-12-29T15:48:38.394Z,22.40
2018-12-29T15:51:06.734Z,20.70
2018-12-29T15:53:35.010Z,18.77
2018-12-29T15:56:03.316Z,19.03
2018-12-29T15:58:31.582Z,20.60
2018-12-29T16:00:59.900Z,19.70
2018-12-29T16:03:28.258Z,19.93
2018-12-29T16:05:57.007Z,19.20
2018-12-29T16:08:25.485Z,20.23
2018-12-29T16:10:53.779Z,19.90
2018-12-29T16:13:22.076Z,19.97
2018-12-29T16:15:50.352Z,19.27
2018-12-29T16:18:18.907Z,18.80
2018-12-29T16:20:55.304Z,18.03
2018-12-29T16:23:17.197Z,18.03
2018-12-29T16:25:45.768Z,20.77
2018-12-29T16:28:14.034Z,16.00
2018-12-29T16:30:42.303Z,17.77
2018-12-29T16:33:10.584Z,15.33
2018-12-29T16:35:38.856Z,15.50
2018-12-29T16:38:07.264Z,16.43
2018-12-29T16:40:35.563Z,12.93
2018-12-29T16:43:03.832Z,12.30
2018-12-29T16:45:32.192Z,10.87
2018-12-29T16:48:00.451Z,10.00
2018-12-29T16:50:28.699Z,12.47
2018-12-29T16:52:57.008Z,9.80
2018-12-29T16:55:25.251Z,9.90
2018-12-29T16:57:53.510Z,9.90
2018-12-29T17:00:21.794Z,9.43
2018-12-29T17:02:50.063Z,11.07
2018-12-29T17:05:18.379Z,10.00
2018-12-29T17:07:46.675Z,9.77
2018-12-29T17:10:15.082Z,7.80
2018-12-29T17:12:43.354Z,7.70
2018-12-29T17:15:11.874Z,8.07
2018-12-29T17:17:40.160Z,6.70
2018-12-29T17:20:08.590Z,6.60
2018-12-29T17:22:37.142Z,6.43
2018-12-29T17:25:05.475Z,5.90
2018-12-29T17:27:33.772Z,4.70
2018-12-29T17:30:02.025Z,5.43
2018-12-29T17:32:30.378Z,5.03
2018-12-29T17:34:58.672Z,4.87
2018-12-29T17:37:26.961Z,4.67
2018-12-29T17:39:55.346Z,4.33
2018-12-29T17:42:23.787Z,4.20
2018-12-29T17:44:52.064Z,4.10
2018-12-29T17:47:20.337Z,4.53
2018-12-29T17:49:48.779Z,4.43
2018-12-29T17:52:17.020Z,3.30
2018-12-29T17:54:45.309Z,5.10
2018-12-29T17:57:13.610Z,3.20
2018-12-29T17:59:41.890Z,3.13
2018-12-29T18:02:10.261Z,2.00
2018-12-29T18:04:38.525Z,3.57
2018-12-29T18:07:06.805Z,3.20
2018-12-29T18:09:35.059Z,1.77
2018-12-29T18:12:03.816Z,2.20
2018-12-29T18:14:32.092Z,2.67
2018-12-29T18:17:00.374Z,1.97
2018-12-29T18:19:30.668Z,2.07
2018-12-29T18:21:59.593Z,1.53
2018-12-29T18:24:27.925Z,2.47
2018-12-29T18:26:56.265Z,2.47
2018-12-29T18:29:24.562Z,2.00
2018-12-29T18:31:53.229Z,2.60
2018-12-29T18:34:21.611Z,3.00
2018-12-29T18:36:49.863Z,3.30
2018-12-29T18:39:18.444Z,3.20
2018-12-29T18:41:46.716Z,3.43
2018-12-29T18:44:15.048Z,3.00
2018-12-29T18:46:43.347Z,1.40
2018-12-29T18:49:11.672Z,2.33
2018-12-29T18:51:39.953Z,2.30
2018-12-29T18:54:08.275Z,2.30
2018-12-29T18:56:36.557Z,2.80
2018-12-29T18:59:04.828Z,2.67
2018-12-29T19:01:33.115Z,3.03
2018-12-29T19:04:01.477Z,2.60
2018-12-29T19:06:29.782Z,2.23
2018-12-29T19:08:58.080Z,2.60
2018-12-29T19:11:26.627Z,2.47
2018-12-29T19:13:55.109Z,2.60
2018-12-29T19:16:23.347Z,2.80
2018-12-29T19:18:51.636Z,2.27
2018-12-29T19:21:42.358Z,2.50
2018-12-29T19:23:50.433Z,2.70
2018-12-29T19:26:19.033Z,4.00
2018-12-29T19:28:47.624Z,4.63
2018-12-29T19:31:16.180Z,3.20
2018-12-29T19:33:44.475Z,2.60
2018-12-29T19:36:12.792Z,2.73
2018-12-29T19:38:41.053Z,3.03
2018-12-29T19:41:09.766Z,3.40
2018-12-29T19:43:38.031Z,2.40
2018-12-29T19:46:06.796Z,3.47
2018-12-29T19:48:35.197Z,3.60
2018-12-29T19:51:03.476Z,2.63
2018-12-29T19:53:32.202Z,2.87
2018-12-29T19:56:00.547Z,3.47
2018-12-29T19:58:29.761Z,4.67
2018-12-29T20:00:58.080Z,5.07
2018-12-29T20:03:26.446Z,3.10
2018-12-29T20:05:54.832Z,4.10
2018-12-29T20:08:23.104Z,4.23
2018-12-29T20:10:51.606Z,3.30
2018-12-29T20:13:19.916Z,3.37
2018-12-29T20:15:48.246Z,3.50
2018-12-29T20:18:16.597Z,4.13
2018-12-29T20:20:44.910Z,4.03
2018-12-29T20:23:13.624Z,3.33
2018-12-29T20:25:41.989Z,4.60
2018-12-29T20:28:10.280Z,4.57
2018-12-29T20:30:38.926Z,4.63
2018-12-29T20:33:07.374Z,2.73
2018-12-29T20:35:35.728Z,4.87
2018-12-29T20:38:04.041Z,3.37
2018-12-29T20:40:32.363Z,4.73
2018-12-29T20:43:01.234Z,3.73
2018-12-29T20:45:29.590Z,3.10
2018-12-29T20:47:58.188Z,4.23
2018-12-29T20:50:26.855Z,3.47
2018-12-29T20:52:55.461Z,3.93
2018-12-29T20:55:24.177Z,3.13
2018-12-29T20:57:52.892Z,4.27
2018-12-29T21:00:21.245Z,3.93
2018-12-29T21:02:50.311Z,3.30
2018-12-29T21:05:18.664Z,6.00
2018-12-29T21:07:47.007Z,3.17
2018-12-29T21:10:15.320Z,6.77
2018-12-29T21:12:43.709Z,4.83
2018-12-29T21:15:12.127Z,4.30
2018-12-29T21:17:40.689Z,5.30
2018-12-29T21:20:09.050Z,5.10
2018-12-29T21:22:37.408Z,3.53
2018-12-29T21:25:05.694Z,4.10
2018-12-29T21:27:33.955Z,4.20
2018-12-29T21:30:02.363Z,3.63
2018-12-29T21:32:30.780Z,3.33
2018-12-29T21:34:59.122Z,3.53
2018-12-29T21:37:27.432Z,4.23
2018-12-29T21:39:55.732Z,2.80
2018-12-29T21:42:23.971Z,3.60
2018-12-29T21:44:54.031Z,3.53
2018-12-29T21:47:22.302Z,4.23
2018-12-29T21:49:50.587Z,4.07
2018-12-29T21:52:18.981Z,3.83
2018-12-29T21:54:47.325Z,3.70
2018-12-29T21:57:15.587Z,5.07
2018-12-29T21:59:44.284Z,3.63
2018-12-29T22:02:12.548Z,4.07
2018-12-29T22:04:40.829Z,5.30
2018-12-29T22:07:09.125Z,2.67
2018-12-29T22:09:37.420Z,5.07
2018-12-29T22:12:05.735Z,4.10
2018-12-29T22:14:34.006Z,3.77
2018-12-29T22:17:02.285Z,3.63
2018-12-29T22:19:30.563Z,5.53
2018-12-29T22:21:58.908Z,3.43
2018-12-29T22:24:27.165Z,4.07
2018-12-29T22:26:55.446Z,3.77
2018-12-29T22:29:23.740Z,4.00
2018-12-29T22:31:52.072Z,3.10
2018-12-29T22:34:20.332Z,3.07
2018-12-29T22:36:48.597Z,4.77
2018-12-29T22:39:16.897Z,2.63
2018-12-29T22:41:45.239Z,5.27
2018-12-29T22:44:13.652Z,3.27
2018-12-29T22:46:41.985Z,3.33
2018-12-29T22:49:10.250Z,4.10
2018-12-29T22:51:38.614Z,3.40
2018-12-29T22:54:06.882Z,3.00
2018-12-29T22:56:35.238Z,4.30
2018-12-29T22:59:03.492Z,2.80
2018-12-29T23:01:31.767Z,4.20
2018-12-29T23:04:00.064Z,4.60
2018-12-29T23:06:28.376Z,3.33
2018-12-29T23:08:57.055Z,3.80
2018-12-29T23:11:25.355Z,3.13
2018-12-29T23:13:53.629Z,3.00
2018-12-29T23:16:22.246Z,3.70
2018-12-29T23:18:50.756Z,3.87
2018-12-29T23:21:19.024Z,3.60
2018-12-29T23:23:47.376Z,3.20
2018-12-29T23:26:15.628Z,4.80
2018-12-29T23:28:43.940Z,3.23
2018-12-29T23:31:12.247Z,3.50
2018-12-29T23:33:40.507Z,2.13
2018-12-29T23:36:08.886Z,2.97
2018-12-29T23:38:37.257Z,3.83
2018-12-29T23:41:05.559Z,3.00
2018-12-29T23:43:34.632Z,2.63
2018-12-29T23:46:02.895Z,3.30
2018-12-29T23:48:31.342Z,5.00
2018-12-29T23:51:05.550Z,3.97
2018-12-29T23:53:29.621Z,3.60
2018-12-29T23:55:58.181Z,3.50
2018-12-29T23:58:26.449Z,4.40
